Time;durP1;ratioP1;P1;durP2;ratioP2;P2;SDS_P1;SDS_P2;PMS_P1;PMS_P2;Temp;Humidity;BMP_temperature;BMP_pressure;BME280_temperature;BME280_humidity;BME280_pressure;Samples;Min_cycle;Max_cycle;Signal;HPM_P1;HPM_P2
2021/09/01 00:00:43;;;;;;;9.13;3.40;;;;;;;;;;5013462;28;20458;-70
2021/09/01 00:03:08;;;;;;;10.82;4.07;;;;;;;;;;5014211;28;20194;-69
2021/09/01 00:05:33;;;;;;;14.02;3.28;;;;;;;;;;5013681;28;20213;-70
2021/09/01 00:07:58;;;;;;;9.52;3.83;;;;;;;;;;5013766;28;20215;-70
2021/09/01 00:10:23;;;;;;;11.57;3.33;;;;;;;;;;5013643;28;20264;-70
2021/09/01 00:12:49;;;;;;;11.00;3.58;;;;;;;;;;5013846;28;20937;-69
2021/09/01 00:15:14;;;;;;;11.70;3.58;;;;;;;;;;5014258;28;20540;-70
2021/09/01 00:17:39;;;;;;;7.45;3.72;;;;;;;;;;5013589;28;20645;-70
2021/09/01 00:20:06;;;;;;;7.78;3.70;;;;;;;;;;4995693;28;20708;-70
2021/09/01 00:22:32;;;;;;;10.38;3.88;;;;;;;;;;5012552;28;20175;-70
2021/09/01 00:24:57;;;;;;;10.45;4.05;;;;;;;;;;5013619;28;20250;-69
2021/09/01 00:27:22;;;;;;;12.55;4.60;;;;;;;;;;5013159;28;20202;-70
2021/09/01 00:29:47;;;;;;;13.83;4.20;;;;;;;;;;5013284;28;20214;-70
2021/09/01 00:32:13;;;;;;;8.63;3.55;;;;;;;;;;5011917;28;20471;-70
2021/09/01 00:34:38;;;;;;;11.55;3.28;;;;;;;;;;5013387;28;20214;-70
2021/09/01 00:37:03;;;;;;;14.02;4.05;;;;;;;;;;5012903;28;20194;-70
2021/09/01 00:39:29;;;;;;;11.45;3.60;;;;;;;;;;5013026;28;20182;-70
2021/09/01 00:41:54;;;;;;;12.02;4.05;;;;;;;;;;5012949;28;20205;-70
2021/09/01 00:44:23;;;;;;;9.73;4.38;;;;;;;;;;5013205;28;20217;-70
2021/09/01 00:46:48;;;;;;;7.60;3.30;;;;;;;;;;5013015;28;20199;-69
2021/09/01 00:49:14;;;;;;;8.00;3.28;;;;;;;;;;4994481;28;20707;-70
2021/09/01 00:51:40;;;;;;;10.90;3.83;;;;;;;;;;5012905;28;20202;-70
2021/09/01 00:54:06;;;;;;;11.15;3.13;;;;;;;;;;5012819;28;20252;-69
2021/09/01 00:56:31;;;;;;;14.75;4.18;;;;;;;;;;5010684;28;20602;-69
2021/09/01 00:58:56;;;;;;;10.45;4.30;;;;;;;;;;5012860;28;20175;-69
2021/09/01 01:01:22;;;;;;;9.35;3.75;;;;;;;;;;5012907;28;20529;-69
2021/09/01 01:03:47;;;;;;;8.50;3.75;;;;;;;;;;5013126;28;20197;-69
2021/09/01 01:06:13;;;;;;;15.48;4.18;;;;;;;;;;4995173;28;20222;-69
2021/09/01 01:08:38;;;;;;;11.88;3.78;;;;;;;;;;5012445;28;20246;-69
2021/09/01 01:11:03;;;;;;;8.93;3.47;;;;;;;;;;5012154;28;20167;-69
2021/09/01 01:13:29;;;;;;;13.38;4.10;;;;;;;;;;5012678;28;20234;-69
2021/09/01 01:15:54;;;;;;;12.57;3.97;;;;;;;;;;5012748;28;20274;-69
2021/09/01 01:18:19;;;;;;;9.90;3.40;;;;;;;;;;5012193;28;20217;-69
2021/09/01 01:20:48;;;;;;;9.20;4.35;;;;;;;;;;4994667;28;20183;-69
2021/09/01 01:23:14;;;;;;;8.32;3.70;;;;;;;;;;5012413;28;20187;-70
2021/09/01 01:25:39;;;;;;;10.05;4.05;;;;;;;;;;4994674;28;20179;-70
2021/09/01 01:28:09;;;;;;;11.27;3.78;;;;;;;;;;5010013;28;20217;-69
2021/09/01 01:30:35;;;;;;;12.85;4.38;;;;;;;;;;5012077;28;20179;-70
2021/09/01 01:33:00;;;;;;;9.07;4.05;;;;;;;;;;5012081;28;20235;-70
2021/09/01 01:35:31;;;;;;;13.30;5.35;;;;;;;;;;4994723;28;20210;-70
2021/09/01 01:37:57;;;;;;;8.55;3.30;;;;;;;;;;5012211;28;20198;-68
2021/09/01 01:40:22;;;;;;;18.55;4.40;;;;;;;;;;5011763;28;20179;-69
2021/09/01 01:42:49;;;;;;;13.65;4.43;;;;;;;;;;5012207;28;20258;-67
2021/09/01 01:45:14;;;;;;;7.70;3.33;;;;;;;;;;5011765;28;20178;-67
2021/09/01 01:47:39;;;;;;;9.98;4.30;;;;;;;;;;5011927;28;20199;-69
2021/09/01 01:50:05;;;;;;;9.40;3.78;;;;;;;;;;4993791;28;20649;-68
2021/09/01 01:52:30;;;;;;;13.15;4.38;;;;;;;;;;5010857;28;20555;-69
2021/09/01 01:54:55;;;;;;;11.52;4.20;;;;;;;;;;4994534;28;20202;-69
2021/09/01 01:57:20;;;;;;;8.67;3.47;;;;;;;;;;5012030;28;20203;-71
2021/09/01 01:59:46;;;;;;;10.87;4.13;;;;;;;;;;5012262;28;20423;-70
2021/09/01 02:02:11;;;;;;;10.98;3.95;;;;;;;;;;5011825;28;20417;-68
2021/09/01 02:04:36;;;;;;;10.37;3.93;;;;;;;;;;5012002;28;20270;-68
2021/09/01 02:07:02;;;;;;;12.23;3.92;;;;;;;;;;5021063;23;20927;-70
2021/09/01 02:09:27;;;;;;;10.05;3.95;;;;;;;;;;5000586;28;20262;-70
2021/09/01 02:11:52;;;;;;;13.68;5.22;;;;;;;;;;5002921;28;20175;-72
2021/09/01 02:14:17;;;;;;;8.73;3.78;;;;;;;;;;5004700;28;20673;-70
2021/09/01 02:16:42;;;;;;;7.83;4.07;;;;;;;;;;4999398;28;20180;-70
2021/09/01 02:19:09;;;;;;;12.90;4.20;;;;;;;;;;4987972;28;20406;-70
2021/09/01 02:21:35;;;;;;;9.30;3.67;;;;;;;;;;4989376;28;20456;-72
2021/09/01 02:24:00;;;;;;;14.30;4.95;;;;;;;;;;4972183;28;20183;-70
2021/09/01 02:26:27;;;;;;;16.27;5.05;;;;;;;;;;4979421;28;20190;-70
2021/09/01 02:28:53;;;;;;;10.40;3.63;;;;;;;;;;4966754;28;20712;-70
2021/09/01 02:31:18;;;;;;;9.77;3.88;;;;;;;;;;4983210;28;20211;-70
2021/09/01 02:33:43;;;;;;;11.15;3.80;;;;;;;;;;4983527;28;20204;-70
2021/09/01 02:36:08;;;;;;;11.65;4.53;;;;;;;;;;4964764;28;20618;-73
2021/09/01 02:38:33;;;;;;;13.48;4.60;;;;;;;;;;4983284;28;20204;-72
2021/09/01 02:40:59;;;;;;;11.98;4.35;;;;;;;;;;4976998;28;20211;-73
2021/09/01 02:43:24;;;;;;;8.40;3.75;;;;;;;;;;4983641;28;20658;-72
2021/09/01 02:45:49;;;;;;;9.52;4.68;;;;;;;;;;4982808;28;20672;-72
2021/09/01 02:48:15;;;;;;;10.60;4.47;;;;;;;;;;4985734;28;20200;-70
2021/09/01 02:50:40;;;;;;;13.13;4.88;;;;;;;;;;4981701;28;20417;-72
2021/09/01 02:53:06;;;;;;;16.05;6.72;;;;;;;;;;4981234;28;20666;-73
2021/09/01 02:55:31;;;;;;;10.25;4.43;;;;;;;;;;4967400;28;20642;-72
2021/09/01 02:57:56;;;;;;;13.03;4.77;;;;;;;;;;4981605;28;20573;-72
2021/09/01 03:00:21;;;;;;;8.97;5.20;;;;;;;;;;4982226;28;20433;-72
2021/09/01 03:02:46;;;;;;;9.57;4.80;;;;;;;;;;4981358;28;20771;-72
2021/09/01 03:05:11;;;;;;;10.98;4.80;;;;;;;;;;4966182;28;20442;-73
2021/09/01 03:07:37;;;;;;;11.25;4.85;;;;;;;;;;4984554;28;20246;-72
2021/09/01 03:10:02;;;;;;;9.32;4.18;;;;;;;;;;4984198;28;20566;-72
2021/09/01 03:12:27;;;;;;;9.77;4.90;;;;;;;;;;4986601;28;20545;-72
2021/09/01 03:14:52;;;;;;;11.48;4.82;;;;;;;;;;4985668;28;20204;-73
2021/09/01 03:17:18;;;;;;;11.43;5.25;;;;;;;;;;4987739;28;20192;-72
2021/09/01 03:19:43;;;;;;;12.90;5.30;;;;;;;;;;4984154;28;20184;-72
2021/09/01 03:22:08;;;;;;;11.53;4.30;;;;;;;;;;4990052;28;20222;-73
2021/09/01 03:24:33;;;;;;;8.65;4.35;;;;;;;;;;4983530;28;20422;-73
2021/09/01 03:26:58;;;;;;;9.47;4.40;;;;;;;;;;4971600;28;20203;-72
2021/09/01 03:29:23;;;;;;;8.73;4.40;;;;;;;;;;4986677;28;20551;-70
2021/09/01 03:31:49;;;;;;;10.03;4.00;;;;;;;;;;4987942;28;20794;-70
2021/09/01 03:34:14;;;;;;;11.00;4.60;;;;;;;;;;4984559;28;20551;-73
2021/09/01 03:36:39;;;;;;;8.18;4.28;;;;;;;;;;4974774;28;20232;-72
2021/09/01 03:39:04;;;;;;;10.45;5.22;;;;;;;;;;4993150;28;20212;-73
2021/09/01 03:41:29;;;;;;;11.45;4.32;;;;;;;;;;4993958;28;20218;-72
2021/09/01 03:43:55;;;;;;;9.80;5.03;;;;;;;;;;4991237;28;20254;-72
2021/09/01 03:46:20;;;;;;;8.52;3.78;;;;;;;;;;4984646;28;20211;-73
2021/09/01 03:48:45;;;;;;;9.93;4.88;;;;;;;;;;4985625;28;20673;-72
2021/09/01 03:51:10;;;;;;;12.83;5.40;;;;;;;;;;4989882;28;20655;-73
2021/09/01 03:53:35;;;;;;;10.73;4.18;;;;;;;;;;4982504;28;20445;-72
2021/09/01 03:56:01;;;;;;;7.53;4.25;;;;;;;;;;4992670;28;20172;-73
2021/09/01 03:58:26;;;;;;;10.02;4.18;;;;;;;;;;4981960;28;20203;-72
2021/09/01 04:00:51;;;;;;;9.50;3.80;;;;;;;;;;4991212;28;20645;-72
2021/09/01 04:03:16;;;;;;;8.98;4.07;;;;;;;;;;4987843;28;20187;-73
2021/09/01 04:05:42;;;;;;;9.43;4.00;;;;;;;;;;4987684;28;20263;-72
2021/09/01 04:08:07;;;;;;;24.63;5.50;;;;;;;;;;4990231;28;20229;-72
2021/09/01 04:10:32;;;;;;;10.07;3.60;;;;;;;;;;4990648;28;20203;-72
2021/09/01 04:12:57;;;;;;;9.98;4.05;;;;;;;;;;4988570;28;20199;-73
2021/09/01 04:15:23;;;;;;;9.73;3.80;;;;;;;;;;4990379;28;20802;-73
2021/09/01 04:17:48;;;;;;;10.63;4.40;;;;;;;;;;4988632;28;20602;-73
2021/09/01 04:20:13;;;;;;;8.20;3.80;;;;;;;;;;4971715;28;20728;-72
2021/09/01 04:22:38;;;;;;;11.45;4.13;;;;;;;;;;4992254;28;20402;-72
2021/09/01 04:25:04;;;;;;;8.68;4.55;;;;;;;;;;4969976;28;20188;-72
2021/09/01 04:27:29;;;;;;;8.15;3.40;;;;;;;;;;4989326;28;20675;-72
2021/09/01 04:29:54;;;;;;;11.95;5.03;;;;;;;;;;4988574;28;20561;-73
2021/09/01 04:32:19;;;;;;;7.22;3.53;;;;;;;;;;4993477;28;20250;-72
2021/09/01 04:34:45;;;;;;;7.78;3.63;;;;;;;;;;4973241;28;20204;-72
2021/09/01 04:37:10;;;;;;;6.45;3.40;;;;;;;;;;4991306;28;20685;-72
2021/09/01 04:39:35;;;;;;;9.75;5.43;;;;;;;;;;4989703;28;20690;-72
2021/09/01 04:42:00;;;;;;;8.13;3.77;;;;;;;;;;4988361;28;20183;-72
2021/09/01 04:44:25;;;;;;;9.27;4.15;;;;;;;;;;4982684;28;20405;-73
2021/09/01 04:46:51;;;;;;;10.25;4.15;;;;;;;;;;4987485;28;20245;-72
2021/09/01 04:49:16;;;;;;;7.68;3.65;;;;;;;;;;4983855;28;20176;-73
2021/09/01 04:51:41;;;;;;;8.13;4.22;;;;;;;;;;4987605;28;20228;-70
2021/09/01 04:54:06;;;;;;;9.00;3.65;;;;;;;;;;4986481;28;20199;-70
2021/09/01 04:56:31;;;;;;;11.18;4.15;;;;;;;;;;4990133;28;20184;-72
2021/09/01 04:58:57;;;;;;;7.45;4.30;;;;;;;;;;4983674;28;20165;-72
2021/09/01 05:01:22;;;;;;;10.38;4.00;;;;;;;;;;4975414;28;20558;-73
2021/09/01 05:03:47;;;;;;;13.38;3.85;;;;;;;;;;4985418;28;20263;-72
2021/09/01 05:06:13;;;;;;;7.60;3.42;;;;;;;;;;4991523;28;20183;-73
2021/09/01 05:08:38;;;;;;;6.72;3.47;;;;;;;;;;4987906;28;20245;-72
2021/09/01 05:11:03;;;;;;;5.50;3.25;;;;;;;;;;4990487;28;20196;-72
2021/09/01 05:13:28;;;;;;;6.03;3.73;;;;;;;;;;4988923;28;20247;-72
2021/09/01 05:15:53;;;;;;;8.93;4.10;;;;;;;;;;4991034;28;20426;-72
2021/09/01 05:18:18;;;;;;;8.40;4.00;;;;;;;;;;4986900;28;20500;-70
2021/09/01 05:20:46;;;;;;;10.00;3.97;;;;;;;;;;4991607;28;20565;-72
2021/09/01 05:23:11;;;;;;;6.35;3.85;;;;;;;;;;4988863;28;20203;-72
2021/09/01 05:25:50;;;;;;;7.05;3.65;;;;;;;;;;4986615;28;20180;-70
2021/09/01 05:28:16;;;;;;;7.00;3.20;;;;;;;;;;4989724;28;20211;-72
2021/09/01 05:30:42;;;;;;;5.72;3.38;;;;;;;;;;4985542;28;20234;-72
2021/09/01 05:33:09;;;;;;;11.63;3.75;;;;;;;;;;4963749;28;20203;-72
2021/09/01 05:35:34;;;;;;;7.03;3.40;;;;;;;;;;4990727;28;20176;-72
2021/09/01 05:38:00;;;;;;;6.32;2.95;;;;;;;;;;4970954;28;20257;-72
2021/09/01 05:40:25;;;;;;;7.47;4.03;;;;;;;;;;4989117;28;20609;-72
2021/09/01 05:42:52;;;;;;;9.48;3.17;;;;;;;;;;4984194;28;20650;-72
2021/09/01 05:45:17;;;;;;;7.10;3.40;;;;;;;;;;4984157;28;20294;-72
2021/09/01 05:47:44;;;;;;;7.50;3.50;;;;;;;;;;4965533;28;20287;-72
2021/09/01 05:50:09;;;;;;;7.07;3.03;;;;;;;;;;4982387;28;20548;-73
2021/09/01 05:52:35;;;;;;;7.47;3.50;;;;;;;;;;4985406;28;20176;-72
2021/09/01 05:55:09;;;;;;;7.03;3.22;;;;;;;;;;4978259;28;20208;-70
2021/09/01 05:57:35;;;;;;;5.97;2.90;;;;;;;;;;4982821;28;20195;-70
2021/09/01 06:00:03;;;;;;;5.95;3.15;;;;;;;;;;4985617;28;20704;-70
2021/09/01 06:02:34;;;;;;;5.40;2.70;;;;;;;;;;4984236;28;20180;-70
2021/09/01 06:05:03;;;;;;;8.95;3.80;;;;;;;;;;4984439;28;20180;-72
2021/09/01 06:07:28;;;;;;;7.85;3.63;;;;;;;;;;4984573;28;20239;-72
2021/09/01 06:09:56;;;;;;;6.85;2.95;;;;;;;;;;4988765;28;20214;-72
2021/09/01 06:12:24;;;;;;;6.93;3.47;;;;;;;;;;4981173;28;20672;-72
2021/09/01 06:14:50;;;;;;;7.78;4.00;;;;;;;;;;4989191;28;20211;-72
2021/09/01 06:17:15;;;;;;;6.10;3.60;;;;;;;;;;4986394;28;20250;-72
2021/09/01 06:19:40;;;;;;;7.35;3.45;;;;;;;;;;4983755;28;20190;-72
2021/09/01 06:22:05;;;;;;;6.03;3.83;;;;;;;;;;4984288;28;20219;-71
2021/09/01 06:24:31;;;;;;;8.65;2.97;;;;;;;;;;4990487;28;20175;-72
2021/09/01 06:26:57;;;;;;;8.18;3.00;;;;;;;;;;4986635;28;20204;-72
2021/09/01 06:29:22;;;;;;;4.88;2.65;;;;;;;;;;4984049;28;20234;-72
2021/09/01 06:31:47;;;;;;;9.63;3.80;;;;;;;;;;4988518;28;20717;-72
2021/09/01 06:34:12;;;;;;;8.00;4.63;;;;;;;;;;4990069;28;20215;-72
2021/09/01 06:36:37;;;;;;;9.20;3.85;;;;;;;;;;4987770;28;20417;-72
2021/09/01 06:39:03;;;;;;;7.32;3.90;;;;;;;;;;4990804;28;20175;-72
2021/09/01 06:41:28;;;;;;;7.45;3.95;;;;;;;;;;4982371;28;20171;-72
2021/09/01 06:43:53;;;;;;;9.27;3.83;;;;;;;;;;4991972;28;20180;-72
2021/09/01 06:46:18;;;;;;;8.98;3.70;;;;;;;;;;4989254;28;20266;-72
2021/09/01 06:48:43;;;;;;;7.40;3.77;;;;;;;;;;4986817;28;20195;-72
2021/09/01 06:51:09;;;;;;;8.70;3.25;;;;;;;;;;4984897;28;20438;-72
2021/09/01 06:53:34;;;;;;;7.75;3.17;;;;;;;;;;4970875;28;20546;-72
2021/09/01 06:56:00;;;;;;;10.38;3.47;;;;;;;;;;4983445;28;20176;-72
2021/09/01 06:58:25;;;;;;;10.27;3.50;;;;;;;;;;4985928;28;20191;-72
2021/09/01 07:00:50;;;;;;;9.50;3.37;;;;;;;;;;4963500;28;20183;-72
2021/09/01 07:03:15;;;;;;;9.93;3.20;;;;;;;;;;4983535;28;20472;-72
2021/09/01 07:05:40;;;;;;;7.73;3.13;;;;;;;;;;4988143;28;20425;-72
2021/09/01 07:08:16;;;;;;;7.43;3.45;;;;;;;;;;4983053;28;20538;-72
2021/09/01 07:10:41;;;;;;;12.15;3.38;;;;;;;;;;4985734;28;20187;-72
2021/09/01 07:13:07;;;;;;;8.40;3.65;;;;;;;;;;4985725;28;20207;-72
2021/09/01 07:15:32;;;;;;;12.88;4.32;;;;;;;;;;4989987;28;20650;-72
2021/09/01 07:17:57;;;;;;;6.13;3.30;;;;;;;;;;4993779;28;20187;-72
2021/09/01 07:20:23;;;;;;;7.53;3.43;;;;;;;;;;4990426;28;20573;-72
2021/09/01 07:22:48;;;;;;;8.75;3.75;;;;;;;;;;4986352;28;20413;-72
2021/09/01 07:25:14;;;;;;;6.80;3.35;;;;;;;;;;4992367;28;20178;-72
2021/09/01 07:27:39;;;;;;;6.43;3.38;;;;;;;;;;4988828;28;20207;-72
2021/09/01 07:30:04;;;;;;;7.47;3.73;;;;;;;;;;4989723;28;20207;-72
2021/09/01 07:32:30;;;;;;;6.75;3.75;;;;;;;;;;4994319;28;20768;-72
2021/09/01 07:34:55;;;;;;;9.32;3.75;;;;;;;;;;4987329;28;20195;-72
2021/09/01 07:37:21;;;;;;;6.50;3.03;;;;;;;;;;4984015;28;20246;-72
2021/09/01 07:39:46;;;;;;;6.57;2.70;;;;;;;;;;4986951;28;20826;-72
2021/09/01 07:42:11;;;;;;;5.65;3.33;;;;;;;;;;4982509;28;20524;-72
2021/09/01 07:44:36;;;;;;;7.05;3.17;;;;;;;;;;4987109;28;20234;-72
2021/09/01 07:47:02;;;;;;;10.37;3.57;;;;;;;;;;4990652;28;20203;-71
2021/09/01 07:49:28;;;;;;;5.90;2.83;;;;;;;;;;4966544;28;20414;-72
2021/09/01 07:51:54;;;;;;;6.75;2.50;;;;;;;;;;4984757;28;20226;-72
2021/09/01 07:54:20;;;;;;;4.60;2.90;;;;;;;;;;4985134;28;20757;-72
2021/09/01 07:56:45;;;;;;;6.22;3.08;;;;;;;;;;4984532;28;20223;-72
2021/09/01 07:59:10;;;;;;;7.50;3.13;;;;;;;;;;4984881;28;20203;-72
2021/09/01 08:01:35;;;;;;;9.27;3.30;;;;;;;;;;4984092;28;20445;-72
2021/09/01 08:04:00;;;;;;;6.45;2.67;;;;;;;;;;4971904;28;20422;-71
2021/09/01 08:06:26;;;;;;;6.37;2.80;;;;;;;;;;4989626;28;20183;-72
2021/09/01 08:08:51;;;;;;;10.23;2.83;;;;;;;;;;5032961;23;20497;-68
2021/09/01 08:11:16;;;;;;;7.78;2.70;;;;;;;;;;5033929;28;20419;-70
2021/09/01 08:13:42;;;;;;;4.57;2.40;;;;;;;;;;5033930;28;20217;-67
2021/09/01 08:16:08;;;;;;;6.88;2.55;;;;;;;;;;5033785;28;20663;-70
2021/09/01 08:18:33;;;;;;;6.10;2.40;;;;;;;;;;5033328;28;20275;-67
2021/09/01 08:20:58;;;;;;;5.03;2.37;;;;;;;;;;5033704;28;20190;-69
2021/09/01 08:23:23;;;;;;;8.30;2.50;;;;;;;;;;5033763;28;20484;-69
2021/09/01 08:25:48;;;;;;;5.32;2.67;;;;;;;;;;5033327;28;20832;-69
2021/09/01 08:28:14;;;;;;;5.63;2.33;;;;;;;;;;5033331;28;20269;-69
2021/09/01 08:30:39;;;;;;;8.17;3.20;;;;;;;;;;5033632;28;20826;-69
2021/09/01 08:33:04;;;;;;;5.60;1.97;;;;;;;;;;5033397;28;20454;-69
2021/09/01 08:35:29;;;;;;;5.25;2.30;;;;;;;;;;5033390;28;20503;-70
2021/09/01 08:37:55;;;;;;;7.15;2.30;;;;;;;;;;5033070;28;20680;-69
2021/09/01 08:40:20;;;;;;;5.87;2.30;;;;;;;;;;5032931;28;20746;-69
2021/09/01 08:42:46;;;;;;;7.85;3.83;;;;;;;;;;5033114;28;20423;-69
2021/09/01 08:45:11;;;;;;;6.80;2.10;;;;;;;;;;5033155;28;20252;-69
2021/09/01 08:47:38;;;;;;;5.55;2.38;;;;;;;;;;5032913;28;20244;-69
2021/09/01 08:50:04;;;;;;;6.88;2.45;;;;;;;;;;5032728;28;20194;-70
2021/09/01 08:52:29;;;;;;;9.88;2.47;;;;;;;;;;5032857;28;20177;-70
2021/09/01 08:54:55;;;;;;;8.48;2.20;;;;;;;;;;5032949;28;20206;-70
2021/09/01 08:57:20;;;;;;;9.68;2.35;;;;;;;;;;5032704;28;20276;-68
2021/09/01 08:59:45;;;;;;;6.82;2.70;;;;;;;;;;5029402;28;20644;-68
2021/09/01 09:02:11;;;;;;;5.43;2.40;;;;;;;;;;5032657;28;20185;-68
2021/09/01 09:04:38;;;;;;;4.82;2.08;;;;;;;;;;5032647;28;20411;-68
2021/09/01 09:07:08;;;;;;;5.22;2.17;;;;;;;;;;5032419;28;20182;-69
2021/09/01 09:09:35;;;;;;;8.43;2.63;;;;;;;;;;5032364;28;20197;-68
2021/09/01 09:12:02;;;;;;;6.95;2.25;;;;;;;;;;5032513;28;20182;-68
2021/09/01 09:14:27;;;;;;;3.97;1.90;;;;;;;;;;5032416;28;20202;-69
2021/09/01 09:17:08;;;;;;;6.03;1.98;;;;;;;;;;5030053;28;20603;-69
2021/09/01 09:19:52;;;;;;;5.97;1.98;;;;;;;;;;5030570;28;20174;-69
2021/09/01 09:22:26;;;;;;;4.32;2.20;;;;;;;;;;5031663;28;20186;-69
2021/09/01 09:25:01;;;;;;;12.43;2.78;;;;;;;;;;5028059;28;20682;-69
2021/09/01 09:27:36;;;;;;;7.28;2.33;;;;;;;;;;5029097;28;20572;-69
2021/09/01 09:30:02;;;;;;;2.90;1.50;;;;;;;;;;5031965;28;20182;-68
2021/09/01 09:32:27;;;;;;;7.18;2.53;;;;;;;;;;5031698;28;20690;-69
2021/09/01 09:34:55;;;;;;;5.37;2.60;;;;;;;;;;5031873;28;20220;-69
2021/09/01 09:37:20;;;;;;;4.07;2.33;;;;;;;;;;5014186;28;20530;-69
2021/09/01 09:39:46;;;;;;;5.57;2.03;;;;;;;;;;5031802;28;20265;-69
2021/09/01 09:42:12;;;;;;;3.95;2.20;;;;;;;;;;5027157;28;20475;-69
2021/09/01 09:44:38;;;;;;;5.68;1.95;;;;;;;;;;5031837;28;20213;-69
2021/09/01 09:47:03;;;;;;;4.28;1.80;;;;;;;;;;5031790;28;20210;-69
2021/09/01 09:49:29;;;;;;;5.82;1.95;;;;;;;;;;5031219;28;20185;-69
2021/09/01 09:51:54;;;;;;;5.40;2.40;;;;;;;;;;5014181;28;20229;-69
2021/09/01 09:54:21;;;;;;;5.57;2.00;;;;;;;;;;5031508;28;20288;-69
2021/09/01 09:56:47;;;;;;;6.30;3.00;;;;;;;;;;5031825;28;20320;-69
2021/09/01 09:59:16;;;;;;;5.93;2.08;;;;;;;;;;5031154;28;20324;-69
2021/09/01 10:01:42;;;;;;;6.25;2.50;;;;;;;;;;5026314;28;20177;-69
2021/09/01 10:04:08;;;;;;;4.50;2.30;;;;;;;;;;5031388;28;20183;-69
2021/09/01 10:06:33;;;;;;;6.85;2.78;;;;;;;;;;5031811;28;20200;-69
2021/09/01 10:09:01;;;;;;;5.60;2.30;;;;;;;;;;5030930;28;20590;-69
2021/09/01 10:11:26;;;;;;;6.47;2.50;;;;;;;;;;5031862;28;20178;-69
2021/09/01 10:13:52;;;;;;;5.27;2.17;;;;;;;;;;5031329;28;20618;-69
2021/09/01 10:16:20;;;;;;;5.35;2.17;;;;;;;;;;5031407;28;20407;-69
2021/09/01 10:19:08;;;;;;;5.22;2.25;;;;;;;;;;5030231;28;20204;-69
2021/09/01 10:21:36;;;;;;;7.85;2.35;;;;;;;;;;5015064;28;20189;-69
2021/09/01 10:24:18;;;;;;;6.70;1.90;;;;;;;;;;5031272;28;20182;-69
2021/09/01 10:27:03;;;;;;;5.18;2.28;;;;;;;;;;5031189;28;20174;-69
2021/09/01 10:29:47;;;;;;;10.63;2.42;;;;;;;;;;5023615;28;20274;-68
2021/09/01 10:32:29;;;;;;;5.72;1.63;;;;;;;;;;5031341;28;20178;-69
2021/09/01 10:35:12;;;;;;;7.53;2.20;;;;;;;;;;5030872;28;20217;-69
2021/09/01 10:37:40;;;;;;;7.20;2.08;;;;;;;;;;5025119;28;20202;-69
2021/09/01 10:40:07;;;;;;;7.13;2.33;;;;;;;;;;5030365;28;20560;-70
2021/09/01 10:42:42;;;;;;;5.93;2.42;;;;;;;;;;5024368;28;20208;-69
2021/09/01 10:45:12;;;;;;;4.15;1.90;;;;;;;;;;5030884;28;20574;-69
2021/09/01 10:47:50;;;;;;;5.68;2.30;;;;;;;;;;5035284;28;20202;-69
2021/09/01 10:50:15;;;;;;;4.38;2.08;;;;;;;;;;5034661;28;20174;-69
2021/09/01 10:52:59;;;;;;;2.70;1.60;;;;;;;;;;5035104;28;20192;-69
2021/09/01 10:55:25;;;;;;;5.55;1.98;;;;;;;;;;5029355;28;20178;-69
2021/09/01 10:58:09;;;;;;;3.92;1.63;;;;;;;;;;5035325;28;20209;-69
2021/09/01 11:00:38;;;;;;;5.95;1.77;;;;;;;;;;5031468;28;20667;-69
2021/09/01 11:03:03;;;;;;;2.67;1.48;;;;;;;;;;5035088;28;20178;-68
2021/09/01 11:05:29;;;;;;;3.23;1.43;;;;;;;;;;5035014;28;20178;-68
2021/09/01 11:07:54;;;;;;;5.03;1.38;;;;;;;;;;5034896;28;20450;-67
2021/09/01 11:10:19;;;;;;;4.90;1.58;;;;;;;;;;5034742;28;20182;-69
2021/09/01 11:12:55;;;;;;;6.82;2.10;;;;;;;;;;5035084;28;20185;-68
2021/09/01 11:15:20;;;;;;;4.68;1.73;;;;;;;;;;5034682;28;20185;-68
2021/09/01 11:17:45;;;;;;;5.90;1.70;;;;;;;;;;5035030;28;20751;-68
2021/09/01 11:20:10;;;;;;;5.13;2.00;;;;;;;;;;5035924;28;20651;-68
2021/09/01 11:22:37;;;;;;;5.40;1.77;;;;;;;;;;5035896;28;20220;-69
2021/09/01 11:25:10;;;;;;;3.85;1.50;;;;;;;;;;5035247;28;20660;-68
2021/09/01 11:27:36;;;;;;;5.32;1.58;;;;;;;;;;5035694;28;20199;-69
2021/09/01 11:30:04;;;;;;;3.88;1.40;;;;;;;;;;5035278;28;20291;-68
2021/09/01 11:32:29;;;;;;;3.55;1.60;;;;;;;;;;5036170;28;20198;-68
2021/09/01 11:34:54;;;;;;;8.30;1.88;;;;;;;;;;5034085;28;20276;-68
2021/09/01 11:37:23;;;;;;;4.07;1.20;;;;;;;;;;5034572;28;20575;-69
2021/09/01 11:39:49;;;;;;;3.90;1.42;;;;;;;;;;5034462;28;20635;-69
2021/09/01 11:42:15;;;;;;;3.80;1.65;;;;;;;;;;5034646;28;20174;-68
2021/09/01 11:44:40;;;;;;;3.30;1.30;;;;;;;;;;5034665;28;20186;-68
2021/09/01 11:47:15;;;;;;;3.65;1.58;;;;;;;;;;5034764;28;20190;-68
2021/09/01 11:49:40;;;;;;;4.85;2.08;;;;;;;;;;5033595;28;20185;-69
2021/09/01 11:52:05;;;;;;;3.90;1.40;;;;;;;;;;5035919;28;20182;-68
2021/09/01 11:54:31;;;;;;;3.60;1.02;;;;;;;;;;5035891;28;20205;-68
2021/09/01 11:56:56;;;;;;;3.15;1.27;;;;;;;;;;5035962;28;20261;-69
2021/09/01 11:59:25;;;;;;;1.70;1.03;;;;;;;;;;5035343;28;20167;-68
2021/09/01 12:01:53;;;;;;;2.60;1.00;;;;;;;;;;5035524;28;20411;-68
2021/09/01 12:04:19;;;;;;;2.88;1.02;;;;;;;;;;5034839;28;20261;-68
2021/09/01 12:06:55;;;;;;;1.33;1.10;;;;;;;;;;5034376;28;20236;-68
2021/09/01 12:09:21;;;;;;;1.95;0.90;;;;;;;;;;5034592;28;20209;-68
2021/09/01 12:11:48;;;;;;;3.30;1.13;;;;;;;;;;5033223;28;20190;-68
2021/09/01 12:14:14;;;;;;;3.35;1.40;;;;;;;;;;5032728;28;20688;-68
2021/09/01 12:16:39;;;;;;;3.05;1.67;;;;;;;;;;5033951;28;20290;-68
2021/09/01 12:19:09;;;;;;;4.67;1.57;;;;;;;;;;5032840;28;20198;-67
2021/09/01 12:21:49;;;;;;;5.13;1.92;;;;;;;;;;5033755;28;20932;-68
2021/09/01 12:24:16;;;;;;;4.30;1.35;;;;;;;;;;5033549;28;20178;-67
2021/09/01 12:26:48;;;;;;;6.82;1.98;;;;;;;;;;5033395;28;20679;-67
2021/09/01 12:29:28;;;;;;;6.57;2.22;;;;;;;;;;5033018;28;20737;-68
2021/09/01 12:31:53;;;;;;;4.60;1.58;;;;;;;;;;5012323;28;20358;-68
2021/09/01 12:34:29;;;;;;;5.40;1.75;;;;;;;;;;5033643;28;20194;-68
2021/09/01 12:36:58;;;;;;;4.55;1.63;;;;;;;;;;5033645;28;20261;-68
2021/09/01 12:39:23;;;;;;;3.42;1.30;;;;;;;;;;5030025;28;20170;-68
2021/09/01 12:41:49;;;;;;;5.13;2.35;;;;;;;;;;5033353;28;20170;-68
2021/09/01 12:44:16;;;;;;;4.97;1.70;;;;;;;;;;5033154;28;20558;-70
2021/09/01 12:46:41;;;;;;;3.70;1.58;;;;;;;;;;5033357;28;20412;-68
2021/09/01 12:49:22;;;;;;;2.95;1.33;;;;;;;;;;5031854;28;20578;-68
2021/09/01 12:51:48;;;;;;;3.70;1.58;;;;;;;;;;5033309;28;20627;-68
2021/09/01 12:54:13;;;;;;;3.97;1.40;;;;;;;;;;5032439;28;20282;-68
2021/09/01 12:56:40;;;;;;;3.30;1.60;;;;;;;;;;5033137;28;20190;-69
2021/09/01 12:59:05;;;;;;;3.92;1.80;;;;;;;;;;5032364;28;20510;-68
2021/09/01 13:01:30;;;;;;;3.50;1.60;;;;;;;;;;5032979;28;20640;-68
2021/09/01 13:03:55;;;;;;;4.37;1.60;;;;;;;;;;5032874;28;20414;-68
2021/09/01 13:06:20;;;;;;;2.57;1.20;;;;;;;;;;5032956;28;20703;-68
2021/09/01 13:08:45;;;;;;;6.07;1.98;;;;;;;;;;5031516;28;20605;-68
2021/09/01 13:11:11;;;;;;;2.50;1.33;;;;;;;;;;5032871;28;20431;-69
2021/09/01 13:13:36;;;;;;;3.20;1.07;;;;;;;;;;5032760;28;20206;-68
2021/09/01 13:16:01;;;;;;;3.93;1.50;;;;;;;;;;5014901;28;20411;-69
2021/09/01 13:18:26;;;;;;;1.80;1.03;;;;;;;;;;5031811;28;20859;-69
2021/09/01 13:20:55;;;;;;;2.10;1.20;;;;;;;;;;5032707;28;20485;-68
2021/09/01 13:23:21;;;;;;;3.45;1.10;;;;;;;;;;5032486;28;20414;-68
2021/09/01 13:25:46;;;;;;;2.08;0.95;;;;;;;;;;5032289;28;20182;-69
2021/09/01 13:28:11;;;;;;;3.43;1.30;;;;;;;;;;5032166;28;20246;-69
2021/09/01 13:30:36;;;;;;;2.87;1.27;;;;;;;;;;5032054;28;20186;-69
2021/09/01 13:33:01;;;;;;;1.63;0.90;;;;;;;;;;5032121;28;20403;-69
2021/09/01 13:35:27;;;;;;;3.60;1.10;;;;;;;;;;5032159;28;20548;-69
2021/09/01 13:37:52;;;;;;;1.63;0.85;;;;;;;;;;5032309;28;20982;-69
2021/09/01 13:40:17;;;;;;;2.53;1.10;;;;;;;;;;5031711;28;20179;-69
2021/09/01 13:42:42;;;;;;;2.10;0.97;;;;;;;;;;5032146;28;20464;-69
2021/09/01 13:45:09;;;;;;;4.13;0.98;;;;;;;;;;5032015;28;20419;-70
2021/09/01 13:47:34;;;;;;;1.38;1.02;;;;;;;;;;5031920;28;20202;-69
2021/09/01 13:49:59;;;;;;;1.57;0.90;;;;;;;;;;5031149;28;20307;-69
2021/09/01 13:52:24;;;;;;;3.57;0.93;;;;;;;;;;5031806;28;20420;-68
2021/09/01 13:54:52;;;;;;;2.60;0.95;;;;;;;;;;5031542;28;20479;-68
2021/09/01 13:57:17;;;;;;;1.73;0.90;;;;;;;;;;5031588;28;20196;-68
2021/09/01 13:59:42;;;;;;;1.98;1.10;;;;;;;;;;5031552;28;20171;-68
2021/09/01 14:02:08;;;;;;;3.83;1.05;;;;;;;;;;5014371;28;20182;-68
2021/09/01 14:04:33;;;;;;;1.25;0.88;;;;;;;;;;5031597;28;20186;-68
2021/09/01 14:06:58;;;;;;;5.17;1.90;;;;;;;;;;5029948;28;20248;-69
2021/09/01 14:09:23;;;;;;;2.85;1.13;;;;;;;;;;5032873;22;20549;-70
2021/09/01 14:11:49;;;;;;;3.22;1.10;;;;;;;;;;5018224;28;20181;-69
2021/09/01 14:14:14;;;;;;;1.53;0.83;;;;;;;;;;5018601;28;20218;-69
2021/09/01 14:16:39;;;;;;;3.63;1.00;;;;;;;;;;5022815;28;20461;-69
2021/09/01 14:19:05;;;;;;;2.60;1.10;;;;;;;;;;5007430;28;20425;-69
2021/09/01 14:21:30;;;;;;;4.00;1.07;;;;;;;;;;5009240;28;20171;-69
2021/09/01 14:23:55;;;;;;;2.75;1.20;;;;;;;;;;4994126;28;20945;-69
2021/09/01 14:26:21;;;;;;;3.28;1.08;;;;;;;;;;5005970;28;20260;-69
2021/09/01 14:28:46;;;;;;;3.88;1.40;;;;;;;;;;4997678;28;20487;-70
2021/09/01 14:31:12;;;;;;;2.88;1.20;;;;;;;;;;5002893;28;20194;-70
2021/09/01 14:33:37;;;;;;;3.30;1.45;;;;;;;;;;5004186;28;20198;-70
2021/09/01 14:36:02;;;;;;;3.80;2.08;;;;;;;;;;5007869;28;20182;-70